sensor_id;sensor_type;location;lat;lon;timestamp;P1;durP1;ratioP1;P2;durP2;ratioP2
7747;SDS011;3918;42.564;23.164;2023-07-31T04:03:23;46.45;;;41.45;;
7747;SDS011;3918;42.564;23.164;2023-07-31T04:05:53;49.25;;;41.45;;
7747;SDS011;3918;42.564;23.164;2023-07-31T04:08:21;46.67;;;40.85;;
7747;SDS011;3918;42.564;23.164;2023-07-31T04:10:48;43.25;;;38.45;;
7747;SDS011;3918;42.564;23.164;2023-07-31T04:13:15;45.58;;;38.55;;
7747;SDS011;3918;42.564;23.164;2023-07-31T04:15:41;47.53;;;41.65;;
7747;SDS011;3918;42.564;23.164;2023-07-31T04:18:08;47.88;;;39.03;;
7747;SDS011;3918;42.564;23.164;2023-07-31T04:20:36;52.97;;;38.92;;
7747;SDS011;3918;42.564;23.164;2023-07-31T04:23:03;41.80;;;36.03;;
7747;SDS011;3918;42.564;23.164;2023-07-31T04:25:30;42.90;;;35.40;;
7747;SDS011;3918;42.564;23.164;2023-07-31T04:27:56;40.42;;;32.60;;
7747;SDS011;3918;42.564;23.164;2023-07-31T04:30:24;41.08;;;33.67;;
7747;SDS011;3918;42.564;23.164;2023-07-31T04:32:50;38.97;;;33.75;;
7747;SDS011;3918;42.564;23.164;2023-07-31T04:35:17;42.47;;;32.97;;
7747;SDS011;3918;42.564;23.164;2023-07-31T04:37:45;38.55;;;33.45;;
7747;SDS011;3918;42.564;23.164;2023-07-31T04:40:14;40.13;;;33.67;;
7747;SDS011;3918;42.564;23.164;2023-07-31T04:42:40;37.85;;;31.80;;
7747;SDS011;3918;42.564;23.164;2023-07-31T04:45:08;39.28;;;33.25;;
7747;SDS011;3918;42.564;23.164;2023-07-31T04:47:35;40.72;;;36.30;;
7747;SDS011;3918;42.564;23.164;2023-07-31T04:50:02;40.80;;;36.50;;
7747;SDS011;3918;42.564;23.164;2023-07-31T04:52:29;41.53;;;37.00;;
7747;SDS011;3918;42.564;23.164;2023-07-31T04:54:57;36.28;;;32.38;;
7747;SDS011;3918;42.564;23.164;2023-07-31T04:57:24;35.22;;;30.10;;
7747;SDS011;3918;42.564;23.164;2023-07-31T04:59:51;40.55;;;33.90;;
7747;SDS011;3918;42.564;23.164;2023-07-31T05:02:17;36.35;;;32.42;;
7747;SDS011;3918;42.564;23.164;2023-07-31T05:04:44;35.00;;;31.15;;
7747;SDS011;3918;42.564;23.164;2023-07-31T05:07:11;34.55;;;30.58;;
7747;SDS011;3918;42.564;23.164;2023-07-31T05:09:38;35.10;;;31.08;;
7747;SDS011;3918;42.564;23.164;2023-07-31T05:12:07;37.15;;;33.08;;
7747;SDS011;3918;42.564;23.164;2023-07-31T05:14:34;36.83;;;32.88;;
7747;SDS011;3918;42.564;23.164;2023-07-31T05:17:01;37.92;;;32.60;;
7747;SDS011;3918;42.564;23.164;2023-07-31T05:19:28;35.33;;;29.48;;
7747;SDS011;3918;42.564;23.164;2023-07-31T05:21:55;37.88;;;29.33;;
7747;SDS011;3918;42.564;23.164;2023-07-31T05:24:22;32.97;;;28.05;;
7747;SDS011;3918;42.564;23.164;2023-07-31T05:26:48;31.55;;;26.20;;
7747;SDS011;3918;42.564;23.164;2023-07-31T05:29:17;31.08;;;26.27;;
7747;SDS011;3918;42.564;23.164;2023-07-31T05:31:43;35.83;;;29.38;;
7747;SDS011;3918;42.564;23.164;2023-07-31T05:34:10;31.77;;;27.58;;
7747;SDS011;3918;42.564;23.164;2023-07-31T05:36:37;27.85;;;24.63;;
7747;SDS011;3918;42.564;23.164;2023-07-31T05:39:04;30.83;;;25.30;;
7747;SDS011;3918;42.564;23.164;2023-07-31T05:41:33;34.00;;;25.65;;
7747;SDS011;3918;42.564;23.164;2023-07-31T05:44:04;31.83;;;26.40;;
7747;SDS011;3918;42.564;23.164;2023-07-31T05:46:32;29.58;;;26.30;;
7747;SDS011;3918;42.564;23.164;2023-07-31T05:48:59;27.90;;;23.70;;
7747;SDS011;3918;42.564;23.164;2023-07-31T05:51:26;25.92;;;22.90;;
7747;SDS011;3918;42.564;23.164;2023-07-31T05:53:53;23.10;;;20.70;;
7747;SDS011;3918;42.564;23.164;2023-07-31T05:56:20;23.95;;;21.35;;
7747;SDS011;3918;42.564;23.164;2023-07-31T05:58:47;23.08;;;18.33;;
7747;SDS011;3918;42.564;23.164;2023-07-31T06:01:15;22.75;;;19.15;;
7747;SDS011;3918;42.564;23.164;2023-07-31T06:03:44;31.02;;;19.42;;
7747;SDS011;3918;42.564;23.164;2023-07-31T06:06:11;18.95;;;16.20;;
7747;SDS011;3918;42.564;23.164;2023-07-31T06:08:38;20.95;;;17.92;;
7747;SDS011;3918;42.564;23.164;2023-07-31T06:11:05;26.13;;;18.05;;
7747;SDS011;3918;42.564;23.164;2023-07-31T06:13:34;18.63;;;15.02;;
7747;SDS011;3918;42.564;23.164;2023-07-31T06:16:01;20.38;;;15.75;;
7747;SDS011;3918;42.564;23.164;2023-07-31T06:18:30;12.48;;;11.25;;
7747;SDS011;3918;42.564;23.164;2023-07-31T06:20:58;13.38;;;10.90;;
7747;SDS011;3918;42.564;23.164;2023-07-31T06:23:26;8.93;;;8.02;;
7747;SDS011;3918;42.564;23.164;2023-07-31T06:25:53;10.90;;;9.57;;
7747;SDS011;3918;42.564;23.164;2023-07-31T06:28:20;7.65;;;6.95;;
7747;SDS011;3918;42.564;23.164;2023-07-31T06:30:46;6.82;;;5.97;;
7747;SDS011;3918;42.564;23.164;2023-07-31T06:33:13;7.13;;;6.45;;
7747;SDS011;3918;42.564;23.164;2023-07-31T06:35:40;6.65;;;5.78;;
7747;SDS011;3918;42.564;23.164;2023-07-31T06:38:08;6.18;;;5.68;;
7747;SDS011;3918;42.564;23.164;2023-07-31T06:40:35;5.93;;;5.40;;
7747;SDS011;3918;42.564;23.164;2023-07-31T06:43:02;4.88;;;4.47;;
7747;SDS011;3918;42.564;23.164;2023-07-31T06:45:33;4.75;;;4.35;;
7747;SDS011;3918;42.564;23.164;2023-07-31T06:48:00;4.65;;;4.32;;
7747;SDS011;3918;42.564;23.164;2023-07-31T06:50:27;4.75;;;4.20;;
7747;SDS011;3918;42.564;23.164;2023-07-31T06:52:54;3.97;;;3.60;;
7747;SDS011;3918;42.564;23.164;2023-07-31T06:55:23;4.72;;;3.67;;
7747;SDS011;3918;42.564;23.164;2023-07-31T06:57:51;4.18;;;3.83;;
7747;SDS011;3918;42.564;23.164;2023-07-31T07:00:19;4.85;;;4.45;;
7747;SDS011;3918;42.564;23.164;2023-07-31T07:02:46;3.90;;;3.60;;
7747;SDS011;3918;42.564;23.164;2023-07-31T07:05:13;4.38;;;4.07;;
7747;SDS011;3918;42.564;23.164;2023-07-31T07:07:40;4.97;;;4.32;;
7747;SDS011;3918;42.564;23.164;2023-07-31T07:10:08;3.40;;;3.20;;
7747;SDS011;3918;42.564;23.164;2023-07-31T07:12:36;3.53;;;3.22;;
7747;SDS011;3918;42.564;23.164;2023-07-31T07:15:03;3.65;;;3.35;;
7747;SDS011;3918;42.564;23.164;2023-07-31T07:17:31;3.53;;;3.30;;
7747;SDS011;3918;42.564;23.164;2023-07-31T07:19:57;3.83;;;3.45;;
7747;SDS011;3918;42.564;23.164;2023-07-31T07:22:25;9.10;;;3.67;;
7747;SDS011;3918;42.564;23.164;2023-07-31T07:24:52;3.22;;;2.92;;
7747;SDS011;3918;42.564;23.164;2023-07-31T07:27:19;3.20;;;3.00;;
7747;SDS011;3918;42.564;23.164;2023-07-31T07:29:49;3.15;;;2.95;;
7747;SDS011;3918;42.564;23.164;2023-07-31T07:32:16;3.05;;;2.85;;
7747;SDS011;3918;42.564;23.164;2023-07-31T07:34:43;3.95;;;2.53;;
7747;SDS011;3918;42.564;23.164;2023-07-31T07:37:11;3.35;;;3.05;;
7747;SDS011;3918;42.564;23.164;2023-07-31T07:39:38;2.50;;;2.40;;
7747;SDS011;3918;42.564;23.164;2023-07-31T07:42:04;3.40;;;3.17;;
7747;SDS011;3918;42.564;23.164;2023-07-31T07:44:31;2.70;;;2.60;;
7747;SDS011;3918;42.564;23.164;2023-07-31T07:46:59;2.75;;;2.65;;
7747;SDS011;3918;42.564;23.164;2023-07-31T07:49:26;3.83;;;2.80;;
7747;SDS011;3918;42.564;23.164;2023-07-31T07:51:53;4.07;;;2.83;;
7747;SDS011;3918;42.564;23.164;2023-07-31T07:54:20;2.50;;;2.40;;
7747;SDS011;3918;42.564;23.164;2023-07-31T07:56:47;3.70;;;2.70;;
7747;SDS011;3918;42.564;23.164;2023-07-31T07:59:14;3.28;;;2.35;;
7747;SDS011;3918;42.564;23.164;2023-07-31T08:01:41;2.90;;;2.70;;
7747;SDS011;3918;42.564;23.164;2023-07-31T08:04:09;2.50;;;2.40;;
7747;SDS011;3918;42.564;23.164;2023-07-31T08:06:36;3.30;;;2.80;;
7747;SDS011;3918;42.564;23.164;2023-07-31T08:09:03;4.78;;;2.78;;
7747;SDS011;3918;42.564;23.164;2023-07-31T08:11:31;2.72;;;2.53;;
7747;SDS011;3918;42.564;23.164;2023-07-31T08:13:58;2.80;;;2.60;;
7747;SDS011;3918;42.564;23.164;2023-07-31T08:16:25;3.63;;;2.45;;
7747;SDS011;3918;42.564;23.164;2023-07-31T08:18:52;2.95;;;2.70;;
7747;SDS011;3918;42.564;23.164;2023-07-31T08:21:20;2.70;;;2.55;;
7747;SDS011;3918;42.564;23.164;2023-07-31T08:23:47;2.60;;;2.40;;
7747;SDS011;3918;42.564;23.164;2023-07-31T08:26:14;2.65;;;2.55;;
7747;SDS011;3918;42.564;23.164;2023-07-31T08:28:42;3.83;;;2.40;;
7747;SDS011;3918;42.564;23.164;2023-07-31T08:31:09;2.80;;;2.50;;
7747;SDS011;3918;42.564;23.164;2023-07-31T08:33:36;8.48;;;2.90;;
7747;SDS011;3918;42.564;23.164;2023-07-31T08:36:03;2.58;;;2.30;;
7747;SDS011;3918;42.564;23.164;2023-07-31T08:38:32;6.78;;;3.10;;
7747;SDS011;3918;42.564;23.164;2023-07-31T08:40:59;2.47;;;2.35;;
7747;SDS011;3918;42.564;23.164;2023-07-31T08:43:26;11.75;;;2.70;;
7747;SDS011;3918;42.564;23.164;2023-07-31T08:45:53;2.70;;;2.50;;
7747;SDS011;3918;42.564;23.164;2023-07-31T08:48:21;2.40;;;2.20;;
7747;SDS011;3918;42.564;23.164;2023-07-31T08:50:48;4.55;;;2.80;;
7747;SDS011;3918;42.564;23.164;2023-07-31T08:53:15;2.70;;;2.50;;
7747;SDS011;3918;42.564;23.164;2023-07-31T08:55:44;13.68;;;2.92;;
7747;SDS011;3918;42.564;23.164;2023-07-31T08:58:11;2.80;;;2.60;;
7747;SDS011;3918;42.564;23.164;2023-07-31T09:00:39;2.60;;;2.40;;
7747;SDS011;3918;42.564;23.164;2023-07-31T09:03:13;2.88;;;2.40;;
7747;SDS011;3918;42.564;23.164;2023-07-31T09:05:41;2.75;;;2.55;;
7747;SDS011;3918;42.564;23.164;2023-07-31T09:08:10;2.67;;;2.47;;
7747;SDS011;3918;42.564;23.164;2023-07-31T09:10:40;2.67;;;2.47;;
7747;SDS011;3918;42.564;23.164;2023-07-31T09:13:09;4.25;;;2.13;;
7747;SDS011;3918;42.564;23.164;2023-07-31T09:15:36;4.95;;;2.33;;
7747;SDS011;3918;42.564;23.164;2023-07-31T09:18:03;2.55;;;2.45;;
7747;SDS011;3918;42.564;23.164;2023-07-31T09:20:31;3.20;;;2.33;;
7747;SDS011;3918;42.564;23.164;2023-07-31T09:23:04;2.70;;;2.50;;
7747;SDS011;3918;42.564;23.164;2023-07-31T09:25:33;2.97;;;2.60;;
7747;SDS011;3918;42.564;23.164;2023-07-31T09:28:00;2.42;;;2.33;;
7747;SDS011;3918;42.564;23.164;2023-07-31T09:30:29;2.67;;;2.47;;
7747;SDS011;3918;42.564;23.164;2023-07-31T09:33:00;7.78;;;2.58;;
7747;SDS011;3918;42.564;23.164;2023-07-31T09:35:28;2.80;;;2.30;;
7747;SDS011;3918;42.564;23.164;2023-07-31T09:37:57;2.63;;;2.22;;
7747;SDS011;3918;42.564;23.164;2023-07-31T09:40:25;2.83;;;2.65;;
7747;SDS011;3918;42.564;23.164;2023-07-31T09:42:54;2.58;;;2.47;;
7747;SDS011;3918;42.564;23.164;2023-07-31T09:45:23;17.40;;;2.60;;
7747;SDS011;3918;42.564;23.164;2023-07-31T09:47:51;2.35;;;2.15;;
7747;SDS011;3918;42.564;23.164;2023-07-31T09:50:20;5.10;;;2.53;;
7747;SDS011;3918;42.564;23.164;2023-07-31T09:52:48;2.50;;;2.30;;
7747;SDS011;3918;42.564;23.164;2023-07-31T09:55:15;4.53;;;3.13;;
7747;SDS011;3918;42.564;23.164;2023-07-31T09:57:43;14.55;;;4.03;;
7747;SDS011;3918;42.564;23.164;2023-07-31T10:00:12;3.45;;;2.83;;
7747;SDS011;3918;42.564;23.164;2023-07-31T10:02:40;2.90;;;2.70;;
7747;SDS011;3918;42.564;23.164;2023-07-31T10:05:09;2.75;;;2.55;;
7747;SDS011;3918;42.564;23.164;2023-07-31T10:07:38;9.35;;;3.33;;
7747;SDS011;3918;42.564;23.164;2023-07-31T10:10:08;6.57;;;2.72;;
7747;SDS011;3918;42.564;23.164;2023-07-31T10:12:35;3.13;;;2.75;;
7747;SDS011;3918;42.564;23.164;2023-07-31T10:15:04;4.07;;;2.85;;
7747;SDS011;3918;42.564;23.164;2023-07-31T10:17:32;2.95;;;2.80;;
7747;SDS011;3918;42.564;23.164;2023-07-31T10:20:01;3.00;;;2.80;;
7747;SDS011;3918;42.564;23.164;2023-07-31T10:22:31;2.42;;;2.33;;
7747;SDS011;3918;42.564;23.164;2023-07-31T10:24:59;8.80;;;2.35;;
7747;SDS011;3918;42.564;23.164;2023-07-31T10:27:27;6.88;;;3.03;;
7747;SDS011;3918;42.564;23.164;2023-07-31T10:29:54;2.53;;;2.33;;
7747;SDS011;3918;42.564;23.164;2023-07-31T10:32:22;5.88;;;2.70;;
7747;SDS011;3918;42.564;23.164;2023-07-31T10:34:51;5.95;;;2.88;;
7747;SDS011;3918;42.564;23.164;2023-07-31T10:37:22;2.35;;;2.25;;
7747;SDS011;3918;42.564;23.164;2023-07-31T10:39:58;2.85;;;2.63;;
7747;SDS011;3918;42.564;23.164;2023-07-31T10:42:27;3.83;;;2.55;;
7747;SDS011;3918;42.564;23.164;2023-07-31T10:44:57;34.83;;;3.85;;
7747;SDS011;3918;42.564;23.164;2023-07-31T10:47:24;13.73;;;2.85;;
7747;SDS011;3918;42.564;23.164;2023-07-31T10:49:51;2.47;;;2.03;;
7747;SDS011;3918;42.564;23.164;2023-07-31T10:52:19;2.88;;;2.25;;
7747;SDS011;3918;42.564;23.164;2023-07-31T10:54:49;2.28;;;2.05;;
7747;SDS011;3918;42.564;23.164;2023-07-31T10:57:21;4.05;;;2.25;;
7747;SDS011;3918;42.564;23.164;2023-07-31T10:59:49;2.58;;;2.38;;
7747;SDS011;3918;42.564;23.164;2023-07-31T11:02:25;9.60;;;2.60;;
7747;SDS011;3918;42.564;23.164;2023-07-31T11:05:07;2.42;;;2.28;;
7747;SDS011;3918;42.564;23.164;2023-07-31T11:07:48;2.95;;;1.80;;
7747;SDS011;3918;42.564;23.164;2023-07-31T11:10:18;16.65;;;3.10;;
7747;SDS011;3918;42.564;23.164;2023-07-31T11:12:46;2.40;;;2.30;;
7747;SDS011;3918;42.564;23.164;2023-07-31T11:15:13;2.22;;;2.13;;
7747;SDS011;3918;42.564;23.164;2023-07-31T11:17:40;23.40;;;3.75;;
7747;SDS011;3918;42.564;23.164;2023-07-31T11:20:07;2.30;;;2.10;;
7747;SDS011;3918;42.564;23.164;2023-07-31T11:22:35;2.33;;;2.05;;
7747;SDS011;3918;42.564;23.164;2023-07-31T11:25:02;2.13;;;2.03;;
7747;SDS011;3918;42.564;23.164;2023-07-31T11:27:30;2.50;;;2.30;;
7747;SDS011;3918;42.564;23.164;2023-07-31T11:30:01;2.05;;;1.95;;
7747;SDS011;3918;42.564;23.164;2023-07-31T11:32:29;2.47;;;2.38;;
7747;SDS011;3918;42.564;23.164;2023-07-31T11:34:56;2.72;;;2.30;;
7747;SDS011;3918;42.564;23.164;2023-07-31T11:37:23;2.88;;;2.20;;
7747;SDS011;3918;42.564;23.164;2023-07-31T11:39:59;2.33;;;2.13;;
7747;SDS011;3918;42.564;23.164;2023-07-31T11:42:26;9.05;;;3.13;;
7747;SDS011;3918;42.564;23.164;2023-07-31T11:44:53;3.40;;;3.17;;
7747;SDS011;3918;42.564;23.164;2023-07-31T11:47:21;7.50;;;3.35;;
7747;SDS011;3918;42.564;23.164;2023-07-31T11:49:48;3.03;;;2.83;;
7747;SDS011;3918;42.564;23.164;2023-07-31T11:52:15;3.53;;;3.20;;
7747;SDS011;3918;42.564;23.164;2023-07-31T11:54:44;4.45;;;3.50;;
7747;SDS011;3918;42.564;23.164;2023-07-31T11:57:12;6.65;;;3.38;;
7747;SDS011;3918;42.564;23.164;2023-07-31T11:59:39;3.90;;;3.47;;
7747;SDS011;3918;42.564;23.164;2023-07-31T12:02:06;4.10;;;3.40;;
7747;SDS011;3918;42.564;23.164;2023-07-31T12:04:35;3.50;;;3.30;;
7747;SDS011;3918;42.564;23.164;2023-07-31T12:07:03;6.82;;;4.30;;
7747;SDS011;3918;42.564;23.164;2023-07-31T12:09:30;4.25;;;3.95;;
7747;SDS011;3918;42.564;23.164;2023-07-31T12:11:57;19.15;;;5.82;;
7747;SDS011;3918;42.564;23.164;2023-07-31T12:14:25;3.78;;;3.58;;
7747;SDS011;3918;42.564;23.164;2023-07-31T12:16:54;3.50;;;3.30;;
7747;SDS011;3918;42.564;23.164;2023-07-31T12:19:22;8.50;;;4.03;;
7747;SDS011;3918;42.564;23.164;2023-07-31T12:21:50;8.35;;;4.15;;
7747;SDS011;3918;42.564;23.164;2023-07-31T12:24:18;11.27;;;4.85;;
7747;SDS011;3918;42.564;23.164;2023-07-31T12:26:45;5.18;;;4.65;;
7747;SDS011;3918;42.564;23.164;2023-07-31T12:29:12;5.15;;;4.60;;
7747;SDS011;3918;42.564;23.164;2023-07-31T12:31:40;11.57;;;4.65;;
7747;SDS011;3918;42.564;23.164;2023-07-31T12:34:14;4.95;;;4.55;;
7747;SDS011;3918;42.564;23.164;2023-07-31T12:36:43;5.10;;;4.63;;
7747;SDS011;3918;42.564;23.164;2023-07-31T12:39:12;5.25;;;4.80;;
7747;SDS011;3918;42.564;23.164;2023-07-31T12:41:38;6.43;;;4.80;;
7747;SDS011;3918;42.564;23.164;2023-07-31T12:44:05;5.30;;;4.90;;
7747;SDS011;3918;42.564;23.164;2023-07-31T12:46:32;15.40;;;5.65;;
7747;SDS011;3918;42.564;23.164;2023-07-31T12:48:59;22.15;;;5.82;;
7747;SDS011;3918;42.564;23.164;2023-07-31T12:51:26;6.18;;;5.05;;
7747;SDS011;3918;42.564;23.164;2023-07-31T12:53:53;4.95;;;4.65;;
7747;SDS011;3918;42.564;23.164;2023-07-31T12:56:21;8.50;;;5.18;;
7747;SDS011;3918;42.564;23.164;2023-07-31T12:58:48;5.47;;;4.97;;
7747;SDS011;3918;42.564;23.164;2023-07-31T13:01:15;7.15;;;6.15;;
7747;SDS011;3918;42.564;23.164;2023-07-31T13:03:42;5.75;;;5.35;;
7747;SDS011;3918;42.564;23.164;2023-07-31T13:06:08;7.82;;;6.18;;
7747;SDS011;3918;42.564;23.164;2023-07-31T13:08:36;7.57;;;6.25;;
7747;SDS011;3918;42.564;23.164;2023-07-31T13:11:03;19.40;;;6.63;;
7747;SDS011;3918;42.564;23.164;2023-07-31T13:13:31;14.60;;;6.90;;
7747;SDS011;3918;42.564;23.164;2023-07-31T13:15:58;7.03;;;6.43;;
7747;SDS011;3918;42.564;23.164;2023-07-31T13:18:24;37.75;;;8.38;;
7747;SDS011;3918;42.564;23.164;2023-07-31T13:20:51;13.23;;;6.38;;
7747;SDS011;3918;42.564;23.164;2023-07-31T13:23:18;6.65;;;6.15;;
7747;SDS011;3918;42.564;23.164;2023-07-31T13:25:44;15.88;;;6.93;;
7747;SDS011;3918;42.564;23.164;2023-07-31T13:28:11;7.55;;;6.95;;
7747;SDS011;3918;42.564;23.164;2023-07-31T13:30:39;6.35;;;5.85;;
7747;SDS011;3918;42.564;23.164;2023-07-31T13:33:06;7.25;;;6.65;;
7747;SDS011;3918;42.564;23.164;2023-07-31T13:35:33;7.88;;;6.55;;
7747;SDS011;3918;42.564;23.164;2023-07-31T13:38:00;11.18;;;6.55;;
7747;SDS011;3918;42.564;23.164;2023-07-31T13:40:26;7.20;;;6.43;;
7747;SDS011;3918;42.564;23.164;2023-07-31T13:42:53;11.80;;;6.57;;
7747;SDS011;3918;42.564;23.164;2023-07-31T13:45:20;7.50;;;6.75;;
7747;SDS011;3918;42.564;23.164;2023-07-31T13:47:49;25.35;;;6.80;;
7747;SDS011;3918;42.564;23.164;2023-07-31T13:50:16;5.97;;;5.47;;
7747;SDS011;3918;42.564;23.164;2023-07-31T13:52:46;8.85;;;5.40;;
7747;SDS011;3918;42.564;23.164;2023-07-31T13:55:12;6.13;;;5.63;;
7747;SDS011;3918;42.564;23.164;2023-07-31T13:57:39;6.20;;;5.70;;
7747;SDS011;3918;42.564;23.164;2023-07-31T14:00:07;6.90;;;6.10;;
7747;SDS011;3918;42.564;23.164;2023-07-31T14:02:34;9.02;;;6.43;;
7747;SDS011;3918;42.564;23.164;2023-07-31T14:05:03;7.60;;;6.90;;
7747;SDS011;3918;42.564;23.164;2023-07-31T14:07:31;6.60;;;5.97;;
7747;SDS011;3918;42.564;23.164;2023-07-31T14:09:58;5.60;;;5.10;;
7747;SDS011;3918;42.564;23.164;2023-07-31T14:12:25;6.70;;;4.43;;
7747;SDS011;3918;42.564;23.164;2023-07-31T14:14:51;7.95;;;5.07;;
7747;SDS011;3918;42.564;23.164;2023-07-31T14:17:18;15.55;;;5.03;;
7747;SDS011;3918;42.564;23.164;2023-07-31T14:19:45;5.15;;;4.75;;
7747;SDS011;3918;42.564;23.164;2023-07-31T14:22:13;4.80;;;4.50;;
7747;SDS011;3918;42.564;23.164;2023-07-31T14:24:40;4.90;;;4.50;;
7747;SDS011;3918;42.564;23.164;2023-07-31T14:27:07;6.25;;;4.28;;
7747;SDS011;3918;42.564;23.164;2023-07-31T14:29:34;36.65;;;5.68;;
7747;SDS011;3918;42.564;23.164;2023-07-31T14:32:00;7.55;;;4.50;;
7747;SDS011;3918;42.564;23.164;2023-07-31T14:34:27;4.80;;;4.43;;
7747;SDS011;3918;42.564;23.164;2023-07-31T14:36:54;4.45;;;4.05;;
7747;SDS011;3918;42.564;23.164;2023-07-31T14:39:22;4.50;;;4.10;;
7747;SDS011;3918;42.564;23.164;2023-07-31T14:41:49;5.00;;;4.60;;
7747;SDS011;3918;42.564;23.164;2023-07-31T14:44:16;4.70;;;4.35;;
7747;SDS011;3918;42.564;23.164;2023-07-31T14:46:43;4.55;;;4.25;;
7747;SDS011;3918;42.564;23.164;2023-07-31T14:49:10;5.30;;;4.80;;
7747;SDS011;3918;42.564;23.164;2023-07-31T14:51:36;6.65;;;4.18;;
7747;SDS011;3918;42.564;23.164;2023-07-31T14:54:03;4.18;;;3.88;;
7747;SDS011;3918;42.564;23.164;2023-07-31T14:56:31;4.55;;;4.13;;
7747;SDS011;3918;42.564;23.164;2023-07-31T14:58:58;4.60;;;4.30;;
7747;SDS011;3918;42.564;23.164;2023-07-31T15:01:25;6.38;;;4.00;;
7747;SDS011;3918;42.564;23.164;2023-07-31T15:03:52;3.28;;;3.08;;
7747;SDS011;3918;42.564;23.164;2023-07-31T15:06:18;5.40;;;4.13;;
7747;SDS011;3918;42.564;23.164;2023-07-31T15:08:45;4.43;;;4.03;;
7747;SDS011;3918;42.564;23.164;2023-07-31T15:11:12;6.18;;;4.55;;
7747;SDS011;3918;42.564;23.164;2023-07-31T15:13:42;3.60;;;3.40;;
7747;SDS011;3918;42.564;23.164;2023-07-31T15:16:09;5.38;;;3.58;;
7747;SDS011;3918;42.564;23.164;2023-07-31T15:18:36;3.72;;;3.53;;
7747;SDS011;3918;42.564;23.164;2023-07-31T15:21:02;3.67;;;3.38;;
7747;SDS011;3918;42.564;23.164;2023-07-31T15:23:31;3.38;;;3.17;;
7747;SDS011;3918;42.564;23.164;2023-07-31T15:25:58;3.55;;;3.25;;
7747;SDS011;3918;42.564;23.164;2023-07-31T15:28:25;3.45;;;3.25;;
7747;SDS011;3918;42.564;23.164;2023-07-31T15:30:53;9.55;;;3.70;;
7747;SDS011;3918;42.564;23.164;2023-07-31T15:33:19;3.42;;;3.22;;
7747;SDS011;3918;42.564;23.164;2023-07-31T15:35:46;3.63;;;3.33;;
7747;SDS011;3918;42.564;23.164;2023-07-31T15:38:13;4.18;;;3.30;;
7747;SDS011;3918;42.564;23.164;2023-07-31T15:40:40;2.97;;;2.78;;
7747;SDS011;3918;42.564;23.164;2023-07-31T15:43:07;4.18;;;3.38;;
7747;SDS011;3918;42.564;23.164;2023-07-31T15:45:33;3.50;;;3.20;;
7747;SDS011;3918;42.564;23.164;2023-07-31T15:48:02;3.38;;;3.00;;
7747;SDS011;3918;42.564;23.164;2023-07-31T15:50:28;3.40;;;3.10;;
7747;SDS011;3918;42.564;23.164;2023-07-31T15:52:55;3.03;;;2.83;;
7747;SDS011;3918;42.564;23.164;2023-07-31T15:55:22;3.40;;;3.10;;
7747;SDS011;3918;42.564;23.164;2023-07-31T15:57:49;2.80;;;2.70;;
7747;SDS011;3918;42.564;23.164;2023-07-31T16:00:16;3.42;;;2.67;;
7747;SDS011;3918;42.564;23.164;2023-07-31T16:02:43;2.72;;;2.50;;
7747;SDS011;3918;42.564;23.164;2023-07-31T16:05:11;11.32;;;2.60;;
7747;SDS011;3918;42.564;23.164;2023-07-31T16:07:38;2.30;;;2.10;;
7747;SDS011;3918;42.564;23.164;2023-07-31T16:10:06;2.63;;;2.50;;
7747;SDS011;3918;42.564;23.164;2023-07-31T16:12:33;2.90;;;2.50;;
7747;SDS011;3918;42.564;23.164;2023-07-31T16:15:00;2.58;;;2.38;;
7747;SDS011;3918;42.564;23.164;2023-07-31T16:17:27;2.35;;;2.25;;
7747;SDS011;3918;42.564;23.164;2023-07-31T16:19:54;2.88;;;2.13;;
7747;SDS011;3918;42.564;23.164;2023-07-31T16:22:23;2.35;;;2.20;;
7747;SDS011;3918;42.564;23.164;2023-07-31T16:24:50;4.10;;;2.47;;
7747;SDS011;3918;42.564;23.164;2023-07-31T16:27:17;3.53;;;2.17;;
7747;SDS011;3918;42.564;23.164;2023-07-31T16:29:48;2.35;;;2.22;;
7747;SDS011;3918;42.564;23.164;2023-07-31T16:32:15;3.67;;;2.67;;
7747;SDS011;3918;42.564;23.164;2023-07-31T16:34:42;4.20;;;2.60;;
7747;SDS011;3918;42.564;23.164;2023-07-31T16:37:08;2.50;;;2.30;;
7747;SDS011;3918;42.564;23.164;2023-07-31T16:39:37;2.42;;;2.22;;
7747;SDS011;3918;42.564;23.164;2023-07-31T16:42:05;2.20;;;2.10;;
7747;SDS011;3918;42.564;23.164;2023-07-31T16:44:32;2.20;;;2.10;;
7747;SDS011;3918;42.564;23.164;2023-07-31T16:46:59;2.22;;;2.10;;
7747;SDS011;3918;42.564;23.164;2023-07-31T16:49:26;2.50;;;2.40;;
7747;SDS011;3918;42.564;23.164;2023-07-31T16:51:53;2.53;;;2.33;;
7747;SDS011;3918;42.564;23.164;2023-07-31T16:54:19;2.20;;;2.00;;
7747;SDS011;3918;42.564;23.164;2023-07-31T16:56:47;2.40;;;2.30;;
7747;SDS011;3918;42.564;23.164;2023-07-31T16:59:14;2.20;;;2.10;;
7747;SDS011;3918;42.564;23.164;2023-07-31T17:01:41;2.35;;;2.22;;
7747;SDS011;3918;42.564;23.164;2023-07-31T17:04:08;2.88;;;2.35;;
7747;SDS011;3918;42.564;23.164;2023-07-31T17:06:35;2.00;;;1.90;;
7747;SDS011;3918;42.564;23.164;2023-07-31T17:09:02;2.40;;;2.30;;
7747;SDS011;3918;42.564;23.164;2023-07-31T17:11:29;2.30;;;2.15;;
7747;SDS011;3918;42.564;23.164;2023-07-31T17:13:57;2.53;;;2.30;;
7747;SDS011;3918;42.564;23.164;2023-07-31T17:16:24;2.42;;;2.28;;
7747;SDS011;3918;42.564;23.164;2023-07-31T17:18:54;2.88;;;2.67;;
7747;SDS011;3918;42.564;23.164;2023-07-31T17:21:20;2.17;;;2.08;;
7747;SDS011;3918;42.564;23.164;2023-07-31T17:23:47;2.08;;;1.98;;
7747;SDS011;3918;42.564;23.164;2023-07-31T17:26:14;3.97;;;2.20;;
7747;SDS011;3918;42.564;23.164;2023-07-31T17:28:41;1.90;;;1.80;;
7747;SDS011;3918;42.564;23.164;2023-07-31T17:31:09;2.15;;;2.05;;
7747;SDS011;3918;42.564;23.164;2023-07-31T17:33:37;2.00;;;1.90;;
7747;SDS011;3918;42.564;23.164;2023-07-31T17:36:04;2.78;;;2.20;;
7747;SDS011;3918;42.564;23.164;2023-07-31T17:38:31;2.25;;;2.15;;
7747;SDS011;3918;42.564;23.164;2023-07-31T17:40:58;2.13;;;2.03;;
7747;SDS011;3918;42.564;23.164;2023-07-31T17:43:25;2.50;;;1.92;;
7747;SDS011;3918;42.564;23.164;2023-07-31T17:45:52;3.53;;;2.15;;
7747;SDS011;3918;42.564;23.164;2023-07-31T17:48:20;2.40;;;2.20;;
7747;SDS011;3918;42.564;23.164;2023-07-31T17:50:48;2.20;;;2.10;;
7747;SDS011;3918;42.564;23.164;2023-07-31T17:53:16;2.10;;;2.00;;
7747;SDS011;3918;42.564;23.164;2023-07-31T17:55:43;3.25;;;2.90;;
7747;SDS011;3918;42.564;23.164;2023-07-31T17:58:10;3.60;;;2.40;;
7747;SDS011;3918;42.564;23.164;2023-07-31T18:00:36;2.70;;;2.50;;
7747;SDS011;3918;42.564;23.164;2023-07-31T18:03:03;3.85;;;2.28;;
7747;SDS011;3918;42.564;23.164;2023-07-31T18:05:32;2.40;;;2.15;;
7747;SDS011;3918;42.564;23.164;2023-07-31T18:07:59;2.85;;;1.80;;
7747;SDS011;3918;42.564;23.164;2023-07-31T18:10:26;2.38;;;2.17;;
7747;SDS011;3918;42.564;23.164;2023-07-31T18:12:53;2.22;;;2.13;;
7747;SDS011;3918;42.564;23.164;2023-07-31T18:15:20;2.47;;;2.33;;
7747;SDS011;3918;42.564;23.164;2023-07-31T18:17:47;2.40;;;2.30;;
7747;SDS011;3918;42.564;23.164;2023-07-31T18:20:14;2.40;;;2.30;;
7747;SDS011;3918;42.564;23.164;2023-07-31T18:22:43;2.63;;;2.42;;
7747;SDS011;3918;42.564;23.164;2023-07-31T18:25:10;4.55;;;2.50;;
7747;SDS011;3918;42.564;23.164;2023-07-31T18:27:38;2.53;;;2.42;;
7747;SDS011;3918;42.564;23.164;2023-07-31T18:30:05;2.35;;;2.25;;
7747;SDS011;3918;42.564;23.164;2023-07-31T18:32:32;2.70;;;2.60;;
7747;SDS011;3918;42.564;23.164;2023-07-31T18:34:59;2.60;;;2.38;;
7747;SDS011;3918;42.564;23.164;2023-07-31T18:37:26;2.55;;;2.35;;
7747;SDS011;3918;42.564;23.164;2023-07-31T18:39:54;2.42;;;2.33;;
7747;SDS011;3918;42.564;23.164;2023-07-31T18:42:21;2.40;;;2.30;;
7747;SDS011;3918;42.564;23.164;2023-07-31T18:44:48;2.63;;;2.42;;
7747;SDS011;3918;42.564;23.164;2023-07-31T18:47:14;2.83;;;2.63;;
7747;SDS011;3918;42.564;23.164;2023-07-31T18:49:41;2.92;;;2.72;;
7747;SDS011;3918;42.564;23.164;2023-07-31T18:52:08;2.80;;;2.70;;
7747;SDS011;3918;42.564;23.164;2023-07-31T18:54:35;2.80;;;2.60;;
7747;SDS011;3918;42.564;23.164;2023-07-31T18:57:03;2.70;;;2.50;;
7747;SDS011;3918;42.564;23.164;2023-07-31T18:59:30;3.08;;;2.88;;
